Time;durP1;ratioP1;P1;durP2;ratioP2;P2;SDS_P1;SDS_P2;PMS_P1;PMS_P2;Temp;Humidity;BMP_temperature;BMP_pressure;BME280_temperature;BME280_humidity;BME280_pressure;Samples;Min_cycle;Max_cycle;Signal;HPM_P1;HPM_P2
2022/12/04 00:02:03;;;;;;;30.00;14.65;;;3.70;99.90;;;;;;5052688;28;20294;-48
2022/12/04 00:04:29;;;;;;;27.20;13.68;;;3.80;99.90;;;;;;5052833;28;20274;-47
2022/12/04 00:06:54;;;;;;;28.95;15.43;;;3.80;99.90;;;;;;5034998;28;20718;-47
2022/12/04 00:09:21;;;;;;;25.40;13.80;;;3.80;99.90;;;;;;5053043;28;20171;-47
2022/12/04 00:11:46;;;;;;;26.88;13.00;;;3.80;99.90;;;;;;5052785;28;20238;-49
2022/12/04 00:14:12;;;;;;;25.23;14.48;;;3.90;99.90;;;;;;5052578;28;20253;-46
2022/12/04 00:16:37;;;;;;;24.80;12.27;;;3.80;99.90;;;;;;5053012;28;20170;-47
2022/12/04 00:19:03;;;;;;;26.80;14.10;;;3.80;99.90;;;;;;5052555;28;20618;-47
2022/12/04 00:21:29;;;;;;;22.52;13.32;;;3.80;99.90;;;;;;5052470;28;20171;-47
2022/12/04 00:23:55;;;;;;;29.60;13.85;;;3.80;99.90;;;;;;5052416;28;20234;-46
2022/12/04 00:26:24;;;;;;;24.48;13.65;;;3.70;99.90;;;;;;5052524;28;20199;-48
2022/12/04 00:28:50;;;;;;;25.02;11.98;;;3.70;99.90;;;;;;5052424;28;20224;-47
2022/12/04 00:31:21;;;;;;;28.52;14.45;;;3.60;99.90;;;;;;5052323;28;20162;-47
2022/12/04 00:33:47;;;;;;;27.48;13.82;;;3.70;99.90;;;;;;5052297;28;20181;-47
2022/12/04 00:36:17;;;;;;;27.60;13.65;;;3.60;99.90;;;;;;5052239;28;20173;-48
2022/12/04 00:38:44;;;;;;;27.17;14.05;;;3.60;99.90;;;;;;5052196;28;20524;-48
2022/12/04 00:41:12;;;;;;;28.10;13.93;;;3.60;99.90;;;;;;5052507;28;20214;-48
2022/12/04 00:43:37;;;;;;;26.33;13.50;;;3.70;99.90;;;;;;5052493;28;20224;-48
2022/12/04 00:46:03;;;;;;;25.65;13.38;;;3.60;99.90;;;;;;5051222;28;20683;-47
2022/12/04 00:48:29;;;;;;;22.85;12.48;;;3.70;99.90;;;;;;5052082;28;20174;-47
2022/12/04 00:50:54;;;;;;;24.73;13.90;;;3.70;99.90;;;;;;5051946;28;20166;-50
2022/12/04 00:53:20;;;;;;;26.38;13.13;;;3.70;99.90;;;;;;5052228;28;20170;-47
2022/12/04 00:55:46;;;;;;;24.42;13.35;;;3.70;99.90;;;;;;5051957;28;20174;-46
2022/12/04 00:58:12;;;;;;;25.13;13.55;;;3.70;99.90;;;;;;5052340;28;20284;-47
2022/12/04 01:00:40;;;;;;;24.00;13.23;;;3.70;99.90;;;;;;5052173;28;20210;-47
2022/12/04 01:03:07;;;;;;;26.77;13.48;;;3.70;99.90;;;;;;5051821;28;20753;-47
2022/12/04 01:05:41;;;;;;;20.38;12.18;;;3.70;99.90;;;;;;5051801;28;20173;-47
2022/12/04 01:08:06;;;;;;;25.60;12.95;;;3.80;99.90;;;;;;5051827;28;20253;-46
2022/12/04 01:10:32;;;;;;;26.40;13.13;;;3.70;99.90;;;;;;5051766;28;20245;-46
2022/12/04 01:12:58;;;;;;;26.88;13.30;;;3.70;99.90;;;;;;5051708;28;20573;-47
2022/12/04 01:15:23;;;;;;;25.15;12.77;;;3.60;99.90;;;;;;5051640;28;20185;-47
2022/12/04 01:17:49;;;;;;;23.20;12.60;;;3.60;99.90;;;;;;5051762;28;20256;-47
2022/12/04 01:20:16;;;;;;;22.80;12.27;;;3.60;99.90;;;;;;5051625;28;20170;-46
2022/12/04 01:22:41;;;;;;;22.38;11.75;;;3.60;99.90;;;;;;5051850;28;20195;-46
2022/12/04 01:25:07;;;;;;;24.52;12.48;;;3.60;99.90;;;;;;5051605;28;20578;-47
2022/12/04 01:27:33;;;;;;;24.00;11.85;;;3.60;99.90;;;;;;5051522;28;20163;-47
2022/12/04 01:29:59;;;;;;;23.10;12.15;;;3.70;99.90;;;;;;5051611;28;20539;-47
2022/12/04 01:32:24;;;;;;;26.70;13.15;;;3.50;99.90;;;;;;5051526;28;20228;-48
2022/12/04 01:34:50;;;;;;;21.50;11.57;;;3.60;99.90;;;;;;5051455;28;20178;-47
2022/12/04 01:37:15;;;;;;;29.08;12.50;;;3.60;99.90;;;;;;5051256;28;20181;-48
2022/12/04 01:39:41;;;;;;;25.73;13.38;;;3.60;99.90;;;;;;5051913;28;20254;-47
2022/12/04 01:42:11;;;;;;;22.02;11.52;;;3.60;99.90;;;;;;5051768;28;20178;-49
2022/12/04 01:45:02;;;;;;;21.70;11.75;;;3.50;99.90;;;;;;5051810;28;20202;-47
2022/12/04 01:47:28;;;;;;;19.55;11.10;;;3.50;99.90;;;;;;5051160;28;20178;-47
2022/12/04 01:49:53;;;;;;;26.80;13.63;;;3.50;99.90;;;;;;5051433;28;20220;-48
2022/12/04 01:52:23;;;;;;;30.15;12.43;;;3.50;99.90;;;;;;5051253;28;20216;-47
2022/12/04 01:54:53;;;;;;;24.40;13.15;;;3.40;99.90;;;;;;5051316;28;20189;-54
2022/12/04 01:57:21;;;;;;;25.08;12.55;;;3.50;99.90;;;;;;5053818;28;20221;-47
2022/12/04 01:59:50;;;;;;;22.83;13.20;;;3.50;99.90;;;;;;5054917;28;20170;-47
2022/12/04 02:02:19;;;;;;;24.27;12.93;;;3.50;99.90;;;;;;5055026;28;20344;-48
2022/12/04 02:04:46;;;;;;;24.83;13.02;;;3.60;99.90;;;;;;5055191;28;20166;-47
2022/12/04 02:07:11;;;;;;;22.80;12.27;;;3.50;99.90;;;;;;5055162;28;20190;-49
2022/12/04 02:09:38;;;;;;;24.13;12.50;;;3.40;99.90;;;;;;5055353;28;20626;-48
2022/12/04 02:12:37;;;;;;;24.50;12.60;;;3.50;99.90;;;;;;5055300;28;20179;-47
2022/12/04 02:15:26;;;;;;;22.77;12.77;;;3.40;99.90;;;;;;5054915;28;20689;-47
2022/12/04 02:17:54;;;;;;;20.33;12.38;;;3.50;99.90;;;;;;5054886;28;20163;-48
2022/12/04 02:20:34;;;;;;;22.67;11.43;;;3.50;99.90;;;;;;5054907;28;20272;-48
2022/12/04 02:23:27;;;;;;;27.17;13.73;;;3.40;99.90;;;;;;5054752;28;20194;-48
2022/12/04 02:26:18;;;;;;;21.17;11.15;;;3.40;99.90;;;;;;5055025;28;20167;-47
2022/12/04 02:29:00;;;;;;;25.00;12.45;;;3.40;99.90;;;;;;5054658;28;20167;-46
2022/12/04 02:31:55;;;;;;;23.50;11.98;;;3.50;99.90;;;;;;5054683;28;20186;-47
2022/12/04 02:34:39;;;;;;;23.65;11.10;;;3.40;99.90;;;;;;5041079;28;20190;-47
2022/12/04 02:37:12;;;;;;;25.50;12.75;;;3.40;99.90;;;;;;5054359;28;20166;-47
2022/12/04 02:39:43;;;;;;;26.70;13.18;;;3.50;99.90;;;;;;5054918;28;20213;-48
2022/12/04 02:42:13;;;;;;;25.88;12.98;;;3.50;99.90;;;;;;5054878;28;20163;-47
2022/12/04 02:44:47;;;;;;;23.42;11.98;;;3.50;99.90;;;;;;5054728;28;20163;-47
2022/12/04 02:47:18;;;;;;;26.92;13.05;;;3.50;99.90;;;;;;5054541;28;20170;-48
2022/12/04 02:49:51;;;;;;;25.70;13.95;;;3.60;99.90;;;;;;5054232;28;20244;-47
2022/12/04 02:52:21;;;;;;;24.67;12.00;;;3.60;99.90;;;;;;5054262;28;20169;-48
2022/12/04 02:54:55;;;;;;;25.55;13.20;;;3.60;99.90;;;;;;5054207;28;20237;-48
2022/12/04 02:57:26;;;;;;;23.05;12.73;;;3.60;99.90;;;;;;5053973;28;20227;-49
2022/12/04 02:59:55;;;;;;;22.15;12.10;;;3.70;99.90;;;;;;5054108;28;20166;-49
2022/12/04 03:02:30;;;;;;;20.38;11.55;;;3.70;99.90;;;;;;5054426;28;20356;-47
2022/12/04 03:04:57;;;;;;;21.38;11.98;;;3.70;99.90;;;;;;5054081;28;20166;-47
2022/12/04 03:07:33;;;;;;;24.55;12.80;;;3.60;99.90;;;;;;5053281;28;20206;-47
2022/12/04 03:10:23;;;;;;;25.77;13.02;;;3.50;99.90;;;;;;5053914;28;20169;-46
2022/12/04 03:12:55;;;;;;;25.73;12.35;;;3.50;99.90;;;;;;5053997;28;20582;-47
2022/12/04 03:15:42;;;;;;;23.70;13.20;;;3.50;99.90;;;;;;5053852;28;20208;-48
2022/12/04 03:18:17;;;;;;;22.95;11.35;;;3.40;99.90;;;;;;5054166;28;20227;-47
2022/12/04 03:20:47;;;;;;;23.73;12.48;;;3.50;99.90;;;;;;5053729;28;20178;-47
2022/12/04 03:23:26;;;;;;;21.25;12.40;;;3.50;99.90;;;;;;5053647;28;20198;-47
2022/12/04 03:26:11;;;;;;;24.17;12.05;;;3.50;99.90;;;;;;5053659;28;20265;-48
2022/12/04 03:28:57;;;;;;;24.02;12.57;;;3.50;99.90;;;;;;5053982;28;20228;-47
2022/12/04 03:31:47;;;;;;;21.90;12.88;;;3.50;99.90;;;;;;5053852;28;20261;-47
2022/12/04 03:34:18;;;;;;;26.50;12.85;;;3.50;99.90;;;;;;5053426;28;20167;-47
2022/12/04 03:36:55;;;;;;;24.75;11.60;;;3.50;99.90;;;;;;5053479;28;20166;-48
2022/12/04 03:39:35;;;;;;;23.08;12.18;;;3.50;99.90;;;;;;5053317;28;20202;-47
2022/12/04 03:42:18;;;;;;;22.08;12.70;;;3.40;99.90;;;;;;5053100;28;20189;-48
2022/12/04 03:45:05;;;;;;;24.38;12.55;;;3.40;99.90;;;;;;5053198;28;20171;-46
2022/12/04 03:47:44;;;;;;;25.27;12.93;;;3.40;99.90;;;;;;5053249;28;20167;-48
2022/12/04 03:50:33;;;;;;;25.05;13.35;;;3.50;99.90;;;;;;5053610;28;20177;-49
2022/12/04 03:53:07;;;;;;;24.58;12.25;;;3.40;99.90;;;;;;5053362;28;20190;-48
2022/12/04 03:55:46;;;;;;;25.15;13.02;;;3.50;99.90;;;;;;5053019;28;20167;-47
2022/12/04 03:58:20;;;;;;;23.55;12.93;;;3.40;99.90;;;;;;5052640;28;20175;-48
2022/12/04 04:00:49;;;;;;;22.80;11.93;;;3.50;99.90;;;;;;5052812;28;20223;-47
2022/12/04 04:03:28;;;;;;;22.00;12.73;;;3.50;99.90;;;;;;5052925;28;20556;-47
2022/12/04 04:06:01;;;;;;;23.38;12.70;;;3.60;99.90;;;;;;5052596;28;20174;-48
2022/12/04 04:08:32;;;;;;;22.85;12.30;;;3.70;99.90;;;;;;5052860;28;20167;-47
2022/12/04 04:11:08;;;;;;;21.17;11.52;;;3.60;99.90;;;;;;5053029;28;20166;-47
2022/12/04 04:25:16;;;;;;;14.80;8.60;;;3.50;99.90;;;;;;5053029;28;20672;-47
2022/12/04 04:27:41;;;;;;;15.73;8.68;;;3.50;99.90;;;;;;5052495;28;20265;-50
2022/12/04 04:30:08;;;;;;;15.25;7.88;;;3.50;99.90;;;;;;5052832;28;20254;-47
2022/12/04 04:32:47;;;;;;;14.65;8.43;;;3.50;99.90;;;;;;5052481;28;20533;-47
2022/12/04 04:35:19;;;;;;;12.55;7.72;;;3.60;99.90;;;;;;5052346;28;20166;-46
2022/12/04 04:37:45;;;;;;;11.88;7.47;;;3.50;99.90;;;;;;5052289;28;20202;-47
2022/12/04 04:40:16;;;;;;;15.07;8.27;;;3.50;99.90;;;;;;5052233;28;20195;-47
2022/12/04 04:43:07;;;;;;;12.52;7.50;;;3.50;99.90;;;;;;5051995;28;20209;-47
2022/12/04 04:45:35;;;;;;;14.43;7.47;;;3.60;99.90;;;;;;5052114;28;20175;-49
2022/12/04 04:48:18;;;;;;;15.35;8.10;;;3.60;99.90;;;;;;5052124;28;20569;-47
2022/12/04 04:50:44;;;;;;;13.25;7.72;;;3.60;99.90;;;;;;5051960;28;20171;-47
2022/12/04 04:53:28;;;;;;;12.10;7.05;;;3.50;99.90;;;;;;5052452;28;20250;-48
2022/12/04 04:55:54;;;;;;;11.88;7.22;;;3.60;99.90;;;;;;5051978;28;20177;-47
2022/12/04 04:58:20;;;;;;;13.88;7.45;;;3.60;99.90;;;;;;5051892;28;20163;-47
2022/12/04 05:01:01;;;;;;;12.55;8.25;;;3.60;99.90;;;;;;5051771;28;20222;-47
2022/12/04 05:03:28;;;;;;;14.82;7.35;;;3.60;99.90;;;;;;5051831;28;20340;-47
2022/12/04 05:05:54;;;;;;;14.57;7.20;;;3.50;99.90;;;;;;5052085;28;20163;-47
2022/12/04 05:08:20;;;;;;;12.15;7.28;;;3.50;99.90;;;;;;5051581;28;20198;-48
2022/12/04 05:10:45;;;;;;;14.50;7.93;;;3.50;99.90;;;;;;5051568;28;20166;-47
2022/12/04 05:13:11;;;;;;;15.45;8.55;;;3.60;99.90;;;;;;5051731;28;20167;-47
2022/12/04 05:15:37;;;;;;;14.18;7.55;;;3.60;99.90;;;;;;5052026;28;20177;-47
2022/12/04 05:18:04;;;;;;;13.88;8.00;;;3.60;99.90;;;;;;5051601;28;20253;-47
2022/12/04 05:20:29;;;;;;;12.48;7.15;;;3.50;99.90;;;;;;5051939;28;20317;-48
2022/12/04 05:22:55;;;;;;;12.15;7.65;;;3.60;99.90;;;;;;5051520;28;20620;-48
2022/12/04 05:25:21;;;;;;;12.95;7.35;;;3.60;99.90;;;;;;5051623;28;20197;-46
2022/12/04 05:27:46;;;;;;;13.27;7.28;;;3.50;99.90;;;;;;5051526;28;20554;-49
2022/12/04 05:30:12;;;;;;;13.95;6.88;;;3.50;99.90;;;;;;5052216;28;20177;-47
2022/12/04 05:32:37;;;;;;;12.77;7.30;;;3.50;99.90;;;;;;5058203;28;20197;-47
2022/12/04 05:35:04;;;;;;;12.77;7.45;;;3.50;99.90;;;;;;5058178;28;20194;-47
2022/12/04 05:37:29;;;;;;;12.20;7.63;;;3.50;99.90;;;;;;5058121;28;20162;-47
2022/12/04 05:39:55;;;;;;;12.52;7.70;;;3.50;99.90;;;;;;5058130;28;20254;-49
2022/12/04 05:42:21;;;;;;;13.07;8.27;;;3.40;99.90;;;;;;5058078;28;20189;-47
2022/12/04 05:44:48;;;;;;;12.68;7.45;;;3.30;99.90;;;;;;5057829;28;20171;-48
2022/12/04 05:47:13;;;;;;;11.13;6.15;;;3.30;99.90;;;;;;5057965;28;20219;-46
2022/12/04 05:49:39;;;;;;;11.40;7.38;;;3.30;99.90;;;;;;5058399;28;20250;-47
2022/12/04 05:52:05;;;;;;;12.82;7.40;;;3.30;99.90;;;;;;5058344;28;20166;-47
2022/12/04 05:54:31;;;;;;;14.32;7.47;;;3.20;99.90;;;;;;5058248;28;20300;-47
2022/12/04 05:56:56;;;;;;;11.27;7.75;;;3.20;99.90;;;;;;5057970;28;20231;-47
2022/12/04 05:59:22;;;;;;;11.35;7.28;;;3.30;99.90;;;;;;5057959;28;20171;-48
2022/12/04 06:01:47;;;;;;;14.50;7.63;;;3.30;99.90;;;;;;5057813;28;20221;-49
2022/12/04 06:04:13;;;;;;;17.20;9.35;;;3.40;99.90;;;;;;5057761;28;20301;-47
2022/12/04 06:06:39;;;;;;;20.58;10.38;;;3.30;99.90;;;;;;5058353;28;20163;-48
2022/12/04 06:09:06;;;;;;;18.08;9.75;;;3.30;99.90;;;;;;5057945;28;20171;-48
2022/12/04 06:11:35;;;;;;;16.67;8.68;;;3.40;99.90;;;;;;5057837;28;20170;-47
2022/12/04 06:14:02;;;;;;;15.48;9.20;;;3.40;99.90;;;;;;5057877;28;20170;-47
2022/12/04 06:16:32;;;;;;;15.30;9.07;;;3.40;99.90;;;;;;5057719;28;20186;-50
2022/12/04 06:19:01;;;;;;;12.70;7.93;;;3.50;99.90;;;;;;5057845;28;20194;-48
2022/12/04 06:21:30;;;;;;;14.95;8.23;;;3.50;99.90;;;;;;5057810;28;20174;-50
2022/12/04 06:23:56;;;;;;;14.00;8.52;;;3.30;99.90;;;;;;5057925;28;20721;-47
2022/12/04 06:26:23;;;;;;;21.25;11.00;;;3.40;99.90;;;;;;5057987;28;20171;-47
2022/12/04 06:28:51;;;;;;;18.15;9.77;;;3.40;99.90;;;;;;5057666;28;20198;-48
2022/12/04 06:31:17;;;;;;;18.17;9.13;;;3.40;99.90;;;;;;5057749;28;20530;-47
2022/12/04 06:33:43;;;;;;;18.40;9.93;;;3.40;99.90;;;;;;5057632;28;20175;-47
2022/12/04 06:36:22;;;;;;;22.80;11.40;;;3.30;99.90;;;;;;5058139;28;20183;-48
2022/12/04 06:38:49;;;;;;;23.42;12.25;;;3.30;99.90;;;;;;5057860;28;20185;-49
2022/12/04 06:41:17;;;;;;;26.35;13.55;;;3.30;99.90;;;;;;5057654;28;20228;-47
2022/12/04 06:43:43;;;;;;;20.52;10.13;;;3.30;99.90;;;;;;5054548;28;20297;-47
2022/12/04 06:46:12;;;;;;;25.63;13.23;;;3.40;99.90;;;;;;5054692;28;20301;-47
2022/12/04 06:48:38;;;;;;;20.05;10.98;;;3.40;99.90;;;;;;5055060;28;20214;-49
2022/12/04 06:51:06;;;;;;;19.58;11.38;;;3.40;99.90;;;;;;5054694;28;20175;-47
2022/12/04 06:53:32;;;;;;;28.60;15.70;;;3.40;99.90;;;;;;5054481;28;20163;-47
2022/12/04 06:55:59;;;;;;;22.70;12.63;;;3.40;99.90;;;;;;5054091;28;20648;-48
2022/12/04 06:58:26;;;;;;;20.92;10.75;;;3.40;99.90;;;;;;5053944;28;20182;-48
2022/12/04 07:00:52;;;;;;;24.35;12.77;;;3.40;99.90;;;;;;5054005;28;20218;-48
2022/12/04 07:03:18;;;;;;;20.30;11.93;;;3.30;99.90;;;;;;5054046;28;20202;-47
2022/12/04 07:05:44;;;;;;;19.58;10.27;;;3.30;99.90;;;;;;5054031;28;20579;-47
2022/12/04 07:08:10;;;;;;;19.05;10.82;;;3.30;99.90;;;;;;5054634;28;20171;-47
2022/12/04 07:10:36;;;;;;;19.98;10.68;;;3.30;99.90;;;;;;5054598;28;20167;-47
2022/12/04 07:13:02;;;;;;;15.02;9.35;;;3.20;99.90;;;;;;5054204;28;20533;-47
2022/12/04 07:15:28;;;;;;;17.05;9.90;;;3.20;99.90;;;;;;5053855;28;20569;-47
2022/12/04 07:17:54;;;;;;;17.60;10.15;;;3.20;99.90;;;;;;5053876;28;20166;-48
2022/12/04 07:20:19;;;;;;;15.43;8.38;;;3.20;99.90;;;;;;5054047;28;20268;-47
2022/12/04 07:22:45;;;;;;;11.65;7.22;;;3.20;99.90;;;;;;5053739;28;20202;-47
2022/12/04 07:25:10;;;;;;;18.63;11.05;;;3.10;99.90;;;;;;5053745;28;20377;-53
2022/12/04 07:27:36;;;;;;;15.75;8.80;;;3.00;99.90;;;;;;5053585;28;20163;-53
2022/12/04 07:30:03;;;;;;;12.65;8.20;;;3.10;99.90;;;;;;5053692;28;20166;-53
2022/12/04 07:32:29;;;;;;;16.67;9.45;;;3.10;99.90;;;;;;5053593;28;20170;-54
2022/12/04 07:34:54;;;;;;;16.13;8.65;;;3.10;99.90;;;;;;5035681;28;20170;-53
2022/12/04 07:37:20;;;;;;;18.80;9.68;;;3.10;99.90;;;;;;5053408;28;20182;-46
2022/12/04 07:39:45;;;;;;;18.63;10.38;;;3.10;99.90;;;;;;5053222;28;20171;-47
2022/12/04 07:42:11;;;;;;;18.95;9.75;;;3.10;99.90;;;;;;5053181;28;20170;-47
2022/12/04 07:44:36;;;;;;;18.90;10.45;;;3.10;99.90;;;;;;5053824;28;20190;-47
2022/12/04 07:47:02;;;;;;;16.08;9.38;;;3.10;99.90;;;;;;5053607;28;20180;-46
2022/12/04 07:49:27;;;;;;;13.95;8.10;;;3.00;99.90;;;;;;5053336;28;20578;-53
2022/12/04 07:51:53;;;;;;;16.33;9.10;;;3.10;99.90;;;;;;5052840;28;20170;-53
2022/12/04 07:54:18;;;;;;;15.93;8.30;;;3.10;99.90;;;;;;5052673;28;20265;-53
2022/12/04 07:56:44;;;;;;;19.13;9.85;;;3.10;99.90;;;;;;5059104;28;20181;-54
2022/12/04 07:59:10;;;;;;;10.27;7.00;;;3.10;99.90;;;;;;5072610;28;20168;-49
2022/12/04 08:01:35;;;;;;;15.75;8.93;;;3.00;99.90;;;;;;5073078;28;20246;-54
2022/12/04 08:04:02;;;;;;;17.45;9.75;;;3.00;99.90;;;;;;5072910;28;20209;-54
2022/12/04 08:06:29;;;;;;;15.73;8.35;;;3.00;99.90;;;;;;5072506;28;20187;-53
2022/12/04 08:08:56;;;;;;;18.40;10.38;;;3.10;99.90;;;;;;5072835;28;20173;-54
2022/12/04 08:11:23;;;;;;;15.27;8.70;;;3.10;99.90;;;;;;5072845;28;20535;-53
2022/12/04 08:13:58;;;;;;;19.60;10.20;;;3.10;99.90;;;;;;5072799;28;20570;-53
2022/12/04 08:16:27;;;;;;;39.00;18.70;;;3.00;99.90;;;;;;5072632;28;20659;-53
2022/12/04 08:18:53;;;;;;;24.08;12.00;;;3.10;99.90;;;;;;5072637;28;20216;-52
2022/12/04 08:21:23;;;;;;;11.75;7.60;;;3.10;99.90;;;;;;5072678;28;20168;-50
2022/12/04 08:23:52;;;;;;;40.60;15.73;;;3.00;99.90;;;;;;5072433;28;20244;-51
2022/12/04 08:26:19;;;;;;;16.75;9.30;;;3.00;99.90;;;;;;5072486;28;20166;-48
2022/12/04 08:28:45;;;;;;;19.80;9.93;;;3.10;99.90;;;;;;5072061;28;20224;-52
2022/12/04 08:31:17;;;;;;;19.27;9.55;;;3.10;99.90;;;;;;5072231;28;20169;-52
2022/12/04 08:33:43;;;;;;;18.55;9.13;;;3.00;99.90;;;;;;5054423;28;20197;-46
2022/12/04 08:36:11;;;;;;;90.47;28.85;;;3.00;99.90;;;;;;5054959;28;20162;-47
2022/12/04 08:38:37;;;;;;;23.98;11.82;;;3.10;99.90;;;;;;5072867;28;20494;-47
2022/12/04 08:41:05;;;;;;;19.67;9.75;;;3.10;99.90;;;;;;5072173;28;20166;-47
2022/12/04 08:43:31;;;;;;;20.70;11.40;;;3.00;99.90;;;;;;5072044;28;20194;-47
2022/12/04 08:45:59;;;;;;;21.02;11.90;;;3.00;99.90;;;;;;5072013;28;20167;-47
2022/12/04 08:48:25;;;;;;;12.73;7.55;;;3.00;99.90;;;;;;5072367;28;20578;-47
2022/12/04 08:50:51;;;;;;;13.88;7.00;;;3.00;99.90;;;;;;5071795;28;20169;-47
2022/12/04 08:53:17;;;;;;;10.57;6.38;;;3.00;99.90;;;;;;5071981;28;20162;-46
2022/12/04 08:55:43;;;;;;;16.40;9.93;;;3.00;99.90;;;;;;5072244;28;20279;-47
2022/12/04 08:58:09;;;;;;;13.13;8.57;;;2.90;99.90;;;;;;5071776;28;20207;-47
2022/12/04 09:00:34;;;;;;;14.55;8.15;;;3.00;99.90;;;;;;5071791;28;20276;-47
2022/12/04 09:03:00;;;;;;;16.25;9.60;;;3.10;99.90;;;;;;5071374;28;20292;-47
2022/12/04 09:05:25;;;;;;;18.00;9.35;;;3.00;99.90;;;;;;5071163;28;20176;-47
2022/12/04 09:07:51;;;;;;;24.48;11.80;;;3.00;99.90;;;;;;5071651;28;20250;-47
2022/12/04 09:10:16;;;;;;;15.05;8.45;;;3.00;99.90;;;;;;5071639;28;20708;-47
2022/12/04 09:12:42;;;;;;;16.52;9.13;;;3.00;99.90;;;;;;5071774;28;20170;-50
2022/12/04 09:15:08;;;;;;;15.50;8.55;;;3.00;99.90;;;;;;5071653;28;20169;-47
2022/12/04 09:17:35;;;;;;;18.08;9.57;;;3.00;99.90;;;;;;5071723;28;20198;-48
2022/12/04 09:20:02;;;;;;;13.27;7.93;;;3.10;99.90;;;;;;5071909;28;20192;-46
2022/12/04 09:22:28;;;;;;;13.32;8.02;;;3.10;99.90;;;;;;5071640;28;20659;-49
2022/12/04 09:24:53;;;;;;;22.63;12.68;;;3.00;99.90;;;;;;5071468;28;20170;-47
2022/12/04 09:27:19;;;;;;;12.13;7.47;;;3.10;99.90;;;;;;5071825;28;20162;-47
2022/12/04 09:29:45;;;;;;;12.95;7.70;;;3.10;99.90;;;;;;5071075;28;20253;-47
2022/12/04 09:32:10;;;;;;;13.75;8.48;;;3.00;99.90;;;;;;5071716;28;20173;-47
2022/12/04 09:34:36;;;;;;;17.33;10.15;;;2.90;99.90;;;;;;5071871;28;20245;-47
2022/12/04 09:37:01;;;;;;;12.02;7.82;;;2.90;99.90;;;;;;5071312;28;20170;-47
2022/12/04 09:39:27;;;;;;;13.13;7.60;;;2.90;99.90;;;;;;5071563;28;20661;-47
2022/12/04 09:42:03;;;;;;;13.38;8.43;;;2.90;99.90;;;;;;5070981;28;20491;-47
2022/12/04 09:44:35;;;;;;;13.38;7.97;;;2.90;99.90;;;;;;5071562;28;20266;-47
2022/12/04 09:47:10;;;;;;;15.70;9.70;;;2.90;99.90;;;;;;5071659;28;20236;-54
2022/12/04 09:49:47;;;;;;;14.45;9.18;;;3.00;99.90;;;;;;5053820;28;20170;-47
2022/12/04 09:52:29;;;;;;;14.55;8.57;;;2.90;99.90;;;;;;5071133;28;20174;-48
2022/12/04 09:54:57;;;;;;;21.35;10.95;;;3.00;99.90;;;;;;5070781;28;20169;-47
2022/12/04 09:57:40;;;;;;;16.38;8.93;;;3.00;99.90;;;;;;5070984;28;20176;-47
2022/12/04 10:00:10;;;;;;;17.65;9.60;;;3.00;99.90;;;;;;5071471;28;20170;-50
2022/12/04 10:02:38;;;;;;;13.15;8.82;;;3.00;99.90;;;;;;5071647;28;20275;-49
2022/12/04 10:05:06;;;;;;;13.38;7.88;;;3.10;99.90;;;;;;5071374;28;20169;-50
2022/12/04 10:08:05;;;;;;;15.20;9.18;;;3.10;99.90;;;;;;5071091;28;20166;-48
2022/12/04 10:10:40;;;;;;;18.63;9.30;;;3.20;99.90;;;;;;5070925;28;20178;-47
2022/12/04 10:13:34;;;;;;;20.20;10.27;;;3.10;99.90;;;;;;5071815;28;20193;-51
2022/12/04 10:16:31;;;;;;;13.35;8.45;;;3.20;99.90;;;;;;5071119;28;20170;-48
2022/12/04 10:19:33;;;;;;;16.95;10.18;;;3.10;99.90;;;;;;5037433;28;20576;-46
2022/12/04 10:22:16;;;;;;;14.68;8.57;;;3.10;99.90;;;;;;5074833;28;20161;-47
2022/12/04 10:24:48;;;;;;;18.67;9.10;;;3.20;99.90;;;;;;5074585;28;20181;-47
2022/12/04 10:27:31;;;;;;;14.23;8.00;;;3.10;99.90;;;;;;5074486;28;20169;-48
2022/12/04 10:30:06;;;;;;;12.85;7.80;;;3.20;99.90;;;;;;5074699;28;20166;-46
2022/12/04 10:32:32;;;;;;;16.23;9.40;;;3.20;99.90;;;;;;5074669;28;20162;-47
2022/12/04 10:35:22;;;;;;;20.60;10.45;;;3.20;99.90;;;;;;5074274;28;20181;-47
2022/12/04 10:37:56;;;;;;;24.25;13.75;;;3.30;99.90;;;;;;5074470;28;20645;-48
2022/12/04 10:40:32;;;;;;;19.90;11.13;;;3.20;99.90;;;;;;5074761;28;20255;-52
2022/12/04 10:43:42;;;;;;;16.92;9.52;;;3.30;99.90;;;;;;5073676;28;20193;-48
2022/12/04 10:46:14;;;;;;;30.20;16.00;;;3.20;99.90;;;;;;5053488;28;20281;-46
2022/12/04 10:48:41;;;;;;;18.00;11.50;;;3.30;99.90;;;;;;5074382;28;20249;-46
2022/12/04 10:51:15;;;;;;;23.02;13.07;;;3.30;99.90;;;;;;5074929;28;20264;-46
2022/12/04 10:53:41;;;;;;;27.77;13.55;;;3.40;99.90;;;;;;5073730;28;20165;-51
2022/12/04 10:56:13;;;;;;;23.85;14.00;;;3.40;99.90;;;;;;5074305;28;20268;-45
2022/12/04 10:58:38;;;;;;;21.60;11.98;;;3.40;99.90;;;;;;5074266;28;20266;-48
2022/12/04 11:01:07;;;;;;;27.13;14.85;;;3.30;99.90;;;;;;5056116;28;20313;-49
2022/12/04 11:03:34;;;;;;;28.70;14.70;;;3.40;99.90;;;;;;5073808;28;20605;-47
2022/12/04 11:06:03;;;;;;;16.45;9.38;;;3.50;99.90;;;;;;5074136;28;20185;-53
2022/12/04 11:08:38;;;;;;;36.53;18.52;;;3.40;99.90;;;;;;5073261;28;20724;-49
2022/12/04 11:11:10;;;;;;;26.08;14.50;;;3.40;99.90;;;;;;5074283;28;20170;-49
2022/12/04 11:13:37;;;;;;;13.98;8.60;;;3.50;99.90;;;;;;5052741;28;20170;-49
2022/12/04 11:16:05;;;;;;;18.50;11.57;;;3.50;99.90;;;;;;5062071;28;20220;-52
2022/12/04 11:18:34;;;;;;;15.60;8.77;;;3.40;99.90;;;;;;5073285;28;20762;-49
2022/12/04 11:21:04;;;;;;;15.27;10.30;;;3.30;99.90;;;;;;5073464;28;20174;-48
2022/12/04 11:23:34;;;;;;;19.75;11.88;;;3.40;99.90;;;;;;5073917;28;20213;-49
2022/12/04 11:26:00;;;;;;;25.67;14.93;;;3.40;99.90;;;;;;5073133;28;20166;-47
2022/12/04 11:28:31;;;;;;;21.92;13.15;;;3.50;99.90;;;;;;5073005;28;20169;-49
2022/12/04 11:31:00;;;;;;;31.52;16.88;;;3.50;99.90;;;;;;5055669;28;20508;-51
2022/12/04 11:33:43;;;;;;;26.70;15.98;;;3.50;99.90;;;;;;5073741;28;20185;-49
2022/12/04 11:36:42;;;;;;;43.13;24.30;;;3.60;99.90;;;;;;5072882;28;20220;-46
2022/12/04 11:39:10;;;;;;;43.72;25.33;;;3.50;99.90;;;;;;5018916;28;20186;-52
2022/12/04 11:41:36;;;;;;;33.95;20.48;;;3.50;99.90;;;;;;5073865;28;20163;-53
2022/12/04 11:44:04;;;;;;;18.17;11.18;;;3.60;99.90;;;;;;5073472;28;20206;-47
2022/12/04 11:46:32;;;;;;;25.88;16.08;;;3.50;99.90;;;;;;5072965;28;20605;-50
2022/12/04 11:48:59;;;;;;;17.20;11.57;;;3.60;99.90;;;;;;5072731;28;20174;-47
2022/12/04 11:51:27;;;;;;;19.15;11.52;;;3.70;99.90;;;;;;5072984;28;20162;-53
2022/12/04 11:53:57;;;;;;;27.05;16.95;;;3.70;99.90;;;;;;5073100;28;20173;-51
2022/12/04 11:56:31;;;;;;;22.73;12.30;;;3.60;99.90;;;;;;5072988;28;20165;-47
2022/12/04 11:59:29;;;;;;;15.98;10.18;;;3.60;99.90;;;;;;5072901;28;20191;-48
2022/12/04 12:02:19;;;;;;;27.67;15.70;;;3.70;99.90;;;;;;5072745;28;20224;-47
2022/12/04 12:05:09;;;;;;;19.55;11.02;;;3.70;99.90;;;;;;5072505;28;20178;-49
2022/12/04 12:07:59;;;;;;;29.35;14.70;;;3.70;99.90;;;;;;5073201;28;20158;-50
2022/12/04 12:10:39;;;;;;;19.70;11.70;;;3.70;99.90;;;;;;5072409;28;20540;-51
2022/12/04 12:13:25;;;;;;;156.48;68.38;;;3.70;99.90;;;;;;5073059;28;20162;-47
2022/12/04 12:16:20;;;;;;;69.03;37.80;;;3.80;99.90;;;;;;5072742;28;20170;-52
2022/12/04 12:19:07;;;;;;;44.88;24.88;;;3.80;99.90;;;;;;5072464;28;20162;-51
2022/12/04 12:22:04;;;;;;;66.85;40.17;;;3.70;99.90;;;;;;5072414;28;20232;-49
2022/12/04 12:24:35;;;;;;;24.50;14.82;;;3.70;99.90;;;;;;5072425;28;20299;-50
2022/12/04 12:27:25;;;;;;;47.05;28.13;;;3.80;99.90;;;;;;5072385;28;20198;-51
2022/12/04 12:30:03;;;;;;;78.28;38.78;;;3.70;99.90;;;;;;5072345;28;20166;-48
2022/12/04 12:32:44;;;;;;;37.72;20.73;;;3.80;99.90;;;;;;5072274;28;20162;-51
2022/12/04 12:35:44;;;;;;;17.45;10.27;;;3.80;99.90;;;;;;5072140;28;20667;-48
2022/12/04 12:38:24;;;;;;;30.40;20.55;;;3.70;99.90;;;;;;5066807;28;20189;-47
2022/12/04 12:41:09;;;;;;;14.65;9.18;;;3.70;99.90;;;;;;5072206;28;20251;-47
2022/12/04 12:43:38;;;;;;;12.95;9.13;;;3.70;99.90;;;;;;5072462;28;20201;-46
2022/12/04 12:46:17;;;;;;;14.95;9.57;;;3.70;99.90;;;;;;5072797;28;20540;-48
2022/12/04 12:48:47;;;;;;;18.90;11.57;;;3.70;99.90;;;;;;5072234;28;20622;-47
2022/12/04 12:51:38;;;;;;;14.98;8.85;;;3.80;99.90;;;;;;5072039;28;20169;-47
2022/12/04 12:54:13;;;;;;;12.52;7.95;;;3.70;99.90;;;;;;5059350;28;20269;-46
2022/12/04 12:56:45;;;;;;;13.40;8.43;;;3.70;99.90;;;;;;5071852;28;20686;-47
2022/12/04 12:59:17;;;;;;;14.88;8.60;;;3.70;99.90;;;;;;5071899;28;20158;-47
2022/12/04 13:02:21;;;;;;;12.00;8.00;;;3.60;99.90;;;;;;5071714;28;20240;-46
2022/12/04 13:04:52;;;;;;;13.10;8.23;;;3.60;99.90;;;;;;5025104;28;20217;-47
2022/12/04 13:07:39;;;;;;;12.50;7.00;;;3.50;99.90;;;;;;5071994;28;20261;-47
2022/12/04 13:10:32;;;;;;;12.65;8.45;;;3.50;99.90;;;;;;5072146;28;20256;-50
2022/12/04 13:13:21;;;;;;;13.40;8.35;;;3.50;99.90;;;;;;5071142;28;21087;-46
2022/12/04 13:15:55;;;;;;;14.27;8.27;;;3.50;99.90;;;;;;5071719;28;20162;-47